createdAt,value
2022-09-12T00:01:11.418Z,58.91
2022-09-12T00:03:38.894Z,58.14
2022-09-12T00:06:23.092Z,58.68
2022-09-12T00:08:50.965Z,58.28
2022-09-12T00:11:18.141Z,58.29
2022-09-12T00:13:44.730Z,57.98
2022-09-12T00:16:32.090Z,59.01
2022-09-12T00:18:59.521Z,58.20
2022-09-12T00:21:27.107Z,58.55
2022-09-12T00:23:54.164Z,58.66
2022-09-12T00:26:22.037Z,58.59
2022-09-12T00:28:49.452Z,58.64
2022-09-12T00:31:18.542Z,58.82
2022-09-12T00:33:45.408Z,58.71
2022-09-12T00:36:24.084Z,59.68
2022-09-12T00:38:54.702Z,59.46
2022-09-12T00:41:27.266Z,59.57
2022-09-12T00:44:16.290Z,59.50
2022-09-12T00:46:47.225Z,58.89
2022-09-12T00:49:16.653Z,58.99
2022-09-12T00:51:51.316Z,59.69
2022-09-12T00:54:22.641Z,59.60
2022-09-12T00:56:52.940Z,59.56
2022-09-12T00:59:27.639Z,59.80
2022-09-12T01:01:55.104Z,59.27
2022-09-12T01:04:25.566Z,59.74
2022-09-12T01:06:52.806Z,59.26
2022-09-12T01:09:22.465Z,60.07
2022-09-12T01:11:51.313Z,59.80
2022-09-12T01:14:18.731Z,59.59
2022-09-12T01:16:47.205Z,59.55
2022-09-12T01:19:38.671Z,60.28
2022-09-12T01:22:20.212Z,60.08
2022-09-12T01:24:59.199Z,60.42
2022-09-12T01:27:28.382Z,59.63
2022-09-12T01:30:22.692Z,60.68
2022-09-12T01:33:22.046Z,60.71
2022-09-12T01:35:57.313Z,60.62
2022-09-12T01:38:36.353Z,59.93
2022-09-12T01:41:44.297Z,60.84
2022-09-12T01:44:38.427Z,60.56
2022-09-12T01:47:24.038Z,60.37
2022-09-12T01:50:07.148Z,60.51
2022-09-12T01:52:39.668Z,60.64
2022-09-12T01:55:13.364Z,60.45
2022-09-12T01:57:45.534Z,60.48
2022-09-12T02:00:13.263Z,60.26
2022-09-12T02:03:03.207Z,60.42
2022-09-12T02:05:38.987Z,60.83
2022-09-12T02:08:14.434Z,60.72
2022-09-12T02:10:47.273Z,60.72
2022-09-12T02:13:20.366Z,60.60
2022-09-12T02:15:50.913Z,59.85
2022-09-12T02:18:19.837Z,59.91
2022-09-12T02:20:49.194Z,59.79
2022-09-12T02:23:28.878Z,60.26
2022-09-12T02:25:59.876Z,60.05
2022-09-12T02:28:33.714Z,60.67
2022-09-12T02:31:19.281Z,60.67
2022-09-12T02:33:45.756Z,60.11
2022-09-12T02:36:25.588Z,60.47
2022-09-12T02:38:52.643Z,60.27
2022-09-12T02:41:20.843Z,60.62
2022-09-12T02:43:50.113Z,60.60
2022-09-12T02:46:23.302Z,60.90
2022-09-12T02:48:49.840Z,60.41
2022-09-12T02:51:21.516Z,60.53
2022-09-12T02:53:50.340Z,60.72
2022-09-12T02:56:29.468Z,60.79
2022-09-12T02:59:02.008Z,60.64
2022-09-12T03:01:53.420Z,60.96
2022-09-12T03:04:47.346Z,60.95
2022-09-12T03:07:31.582Z,60.40
2022-09-12T03:10:24.083Z,60.53
2022-09-12T03:13:11.468Z,60.74
2022-09-12T03:16:11.958Z,60.67
2022-09-12T03:18:55.894Z,60.66
2022-09-12T03:21:31.347Z,60.63
2022-09-12T03:24:04.452Z,60.89
2022-09-12T03:26:35.193Z,60.10
2022-09-12T03:29:05.122Z,60.23
2022-09-12T03:31:31.889Z,60.39
2022-09-12T03:34:00.078Z,60.46
2022-09-12T03:36:28.889Z,60.89
2022-09-12T03:38:56.157Z,60.41
2022-09-12T03:41:22.889Z,60.55
2022-09-12T03:43:49.434Z,60.54
2022-09-12T03:46:15.975Z,60.63
2022-09-12T03:48:42.597Z,60.89
2022-09-12T03:51:10.942Z,61.05
2022-09-12T03:53:37.807Z,60.73
2022-09-12T03:56:11.861Z,61.22
2022-09-12T03:58:38.762Z,61.01
2022-09-12T04:01:12.533Z,61.48
2022-09-12T04:03:43.938Z,61.11
2022-09-12T04:06:12.616Z,61.01
2022-09-12T04:08:39.538Z,60.74
2022-09-12T04:11:09.039Z,60.79
2022-09-12T04:13:36.589Z,60.61
2022-09-12T04:16:04.554Z,60.78
2022-09-12T04:18:31.374Z,60.86
2022-09-12T04:20:58.262Z,60.94
2022-09-12T04:23:25.012Z,60.84
2022-09-12T04:25:59.960Z,61.36
2022-09-12T04:28:29.011Z,61.03
2022-09-12T04:30:56.524Z,61.23
2022-09-12T04:33:23.239Z,61.25
2022-09-12T04:35:50.365Z,60.97
2022-09-12T04:38:16.925Z,61.09
2022-09-12T04:40:43.560Z,60.99
2022-09-12T04:43:14.210Z,61.03
2022-09-12T04:45:41.264Z,61.39
2022-09-12T04:48:07.802Z,61.26
2022-09-12T04:50:34.276Z,61.51
2022-09-12T04:53:00.856Z,61.42
2022-09-12T04:55:27.643Z,61.65
2022-09-12T04:57:54.158Z,61.42
2022-09-12T05:00:20.673Z,61.68
2022-09-12T05:02:47.481Z,61.53
2022-09-12T05:05:14.013Z,61.57
2022-09-12T05:07:40.886Z,61.57
2022-09-12T05:10:08.093Z,61.72
2022-09-12T05:12:34.595Z,61.63
2022-09-12T05:15:01.113Z,61.50
2022-09-12T05:17:29.741Z,61.82
2022-09-12T05:19:56.293Z,61.66
2022-09-12T05:22:22.957Z,61.67
2022-09-12T05:24:50.777Z,61.76
2022-09-12T05:27:17.870Z,61.82
2022-09-12T05:29:44.407Z,61.90
2022-09-12T05:32:12.510Z,61.79
2022-09-12T05:34:40.256Z,61.74
2022-09-12T05:37:06.775Z,61.69
2022-09-12T05:39:33.723Z,61.71
2022-09-12T05:42:00.231Z,61.84
2022-09-12T05:44:26.842Z,62.09
2022-09-12T05:46:53.699Z,61.80
2022-09-12T05:49:21.573Z,61.89
2022-09-12T05:51:48.437Z,62.02
2022-09-12T05:54:18.013Z,62.32
2022-09-12T05:56:45.520Z,62.14
2022-09-12T05:59:15.594Z,62.43
2022-09-12T06:01:42.752Z,62.23
2022-09-12T06:04:09.506Z,62.16
2022-09-12T06:06:39.154Z,62.47
2022-09-12T06:09:06.873Z,62.32
2022-09-12T06:11:35.582Z,62.30
2022-09-12T06:14:02.342Z,62.40
2022-09-12T06:16:31.334Z,62.46
2022-09-12T06:19:02.645Z,62.25
2022-09-12T06:21:31.319Z,62.58
2022-09-12T06:23:59.038Z,62.42
2022-09-12T06:26:26.515Z,62.38
2022-09-12T06:28:56.105Z,62.30
2022-09-12T06:31:29.372Z,62.46
2022-09-12T06:33:57.444Z,62.43
2022-09-12T06:36:27.195Z,62.30
2022-09-12T06:38:58.440Z,62.10
2022-09-12T06:41:26.216Z,61.94
2022-09-12T06:43:53.621Z,61.71
2022-09-12T06:46:21.037Z,61.47
2022-09-12T06:48:48.250Z,61.65
2022-09-12T06:51:17.215Z,61.60
2022-09-12T06:53:45.391Z,61.34
2022-09-12T06:56:13.590Z,61.52
2022-09-12T06:58:41.561Z,61.13
2022-09-12T07:01:19.727Z,61.15
2022-09-12T07:03:55.171Z,60.85
2022-09-12T07:06:24.378Z,60.79
2022-09-12T07:08:51.009Z,60.75
2022-09-12T07:11:23.767Z,60.52
2022-09-12T07:13:53.200Z,60.66
2022-09-12T07:16:20.444Z,60.39
2022-09-12T07:19:09.240Z,59.90
2022-09-12T07:21:39.792Z,60.30
2022-09-12T07:24:09.523Z,60.12
2022-09-12T07:26:36.332Z,60.07
2022-09-12T07:29:32.231Z,60.47
2022-09-12T07:31:49.776Z,60.64
2022-09-12T07:34:17.657Z,60.32
2022-09-12T07:36:44.222Z,60.00
2022-09-12T07:39:10.953Z,59.88
2022-09-12T07:41:37.433Z,59.78
2022-09-12T07:44:06.732Z,59.45
2022-09-12T07:46:33.542Z,59.42
2022-09-12T07:49:01.383Z,59.00
2022-09-12T07:51:29.649Z,59.03
2022-09-12T07:53:56.672Z,58.90
2022-09-12T07:56:29.323Z,58.83
2022-09-12T07:58:56.968Z,58.68
2022-09-12T08:01:23.866Z,58.70
2022-09-12T08:03:55.364Z,58.35
2022-09-12T08:06:25.695Z,58.72
2022-09-12T08:08:57.070Z,58.49
2022-09-12T08:11:25.067Z,58.53
2022-09-12T08:13:55.622Z,58.52
2022-09-12T08:16:25.476Z,58.88
2022-09-12T08:18:52.021Z,59.28
2022-09-12T08:21:25.316Z,58.99
2022-09-12T08:23:54.180Z,59.22
2022-09-12T08:26:20.959Z,58.85
2022-09-12T08:28:48.201Z,58.89
2022-09-12T08:31:17.075Z,58.32
2022-09-12T08:33:44.200Z,58.40
2022-09-12T08:36:15.068Z,58.00
2022-09-12T08:38:43.997Z,58.24
2022-09-12T08:41:14.869Z,57.75
2022-09-12T08:44:07.137Z,58.29
2022-09-12T08:46:45.277Z,57.67
2022-09-12T08:49:18.625Z,57.63
2022-09-12T08:51:45.370Z,57.26
2022-09-12T08:54:39.295Z,57.00
2022-09-12T08:57:06.952Z,56.86
2022-09-12T08:59:42.848Z,56.17
2022-09-12T09:02:27.603Z,56.63
2022-09-12T09:05:17.939Z,56.36
2022-09-12T09:08:13.684Z,55.95
2022-09-12T09:11:13.023Z,56.00
2022-09-12T09:14:17.319Z,56.22
2022-09-12T09:16:46.794Z,56.50
2022-09-12T09:19:30.586Z,56.19
2022-09-12T09:22:06.275Z,55.91
2022-09-12T09:24:56.141Z,56.25
2022-09-12T09:27:40.843Z,55.82
2022-09-12T09:30:19.478Z,55.75
2022-09-12T09:32:50.589Z,56.32
2022-09-12T09:35:19.420Z,56.87
2022-09-12T09:38:00.448Z,56.96
2022-09-12T09:40:37.157Z,56.99
2022-09-12T09:43:24.513Z,57.01
2022-09-12T09:45:53.329Z,56.96
2022-09-12T09:48:25.815Z,56.89
2022-09-12T09:50:52.867Z,57.31
2022-09-12T09:53:31.208Z,57.20
2022-09-12T09:56:02.416Z,56.80
2022-09-12T09:58:34.373Z,56.31
2022-09-12T10:01:21.173Z,56.40
2022-09-12T10:03:53.107Z,55.81
2022-09-12T10:06:19.813Z,55.83
2022-09-12T10:08:48.588Z,55.88
2022-09-12T10:11:28.773Z,56.01
2022-09-12T10:14:03.189Z,55.54
2022-09-12T10:16:29.666Z,55.37
2022-09-12T10:18:58.630Z,54.77
2022-09-12T10:21:30.228Z,54.36
2022-09-12T10:24:22.776Z,54.29
2022-09-12T10:26:56.801Z,54.00
2022-09-12T10:29:33.627Z,52.81
2022-09-12T10:32:04.931Z,53.09
2022-09-12T10:34:37.147Z,52.67
2022-09-12T10:37:09.987Z,53.62
2022-09-12T10:39:38.741Z,54.44
2022-09-12T10:42:05.860Z,54.20
2022-09-12T10:44:34.748Z,53.71
2022-09-12T10:47:20.312Z,51.53
2022-09-12T10:49:46.947Z,51.42
2022-09-12T10:52:18.256Z,50.16
2022-09-12T10:54:45.411Z,51.30
2022-09-12T10:57:22.965Z,49.98
2022-09-12T10:59:55.786Z,51.47
2022-09-12T11:02:59.216Z,51.02
2022-09-12T11:05:43.970Z,52.96
2022-09-12T11:08:31.706Z,52.40
2022-09-12T11:11:13.808Z,53.43
2022-09-12T11:13:50.614Z,50.61
2022-09-12T11:16:43.046Z,50.60
2022-09-12T11:19:31.321Z,49.93
2022-09-12T11:22:22.042Z,48.34
2022-09-12T11:25:12.323Z,47.51
2022-09-12T11:27:50.916Z,45.41
2022-09-12T11:30:18.106Z,44.48
2022-09-12T11:32:56.452Z,43.29
2022-09-12T11:35:27.970Z,42.41
2022-09-12T11:38:00.436Z,42.89
2022-09-12T11:40:56.582Z,41.46
2022-09-12T11:43:33.330Z,39.03
2022-09-12T11:46:10.312Z,38.12
2022-09-12T11:49:03.107Z,38.98
2022-09-12T11:51:39.853Z,36.53
2022-09-12T11:54:36.200Z,37.01
2022-09-12T11:57:18.548Z,36.28
2022-09-12T11:59:51.945Z,37.70
2022-09-12T12:02:36.809Z,34.80
2022-09-12T12:05:06.571Z,33.03
2022-09-12T12:07:45.642Z,32.96
2022-09-12T12:10:27.469Z,34.69
2022-09-12T12:12:56.232Z,33.88
2022-09-12T12:15:25.129Z,32.55
2022-09-12T12:18:17.604Z,32.05
2022-09-12T12:20:44.218Z,34.03
2022-09-12T12:23:31.366Z,33.24
2022-09-12T12:26:00.427Z,32.44
2022-09-12T12:28:42.269Z,31.83
2022-09-12T12:31:10.620Z,31.18
2022-09-12T12:33:37.220Z,31.38
2022-09-12T12:36:09.957Z,30.39
2022-09-12T12:38:41.107Z,30.01
2022-09-12T12:41:16.742Z,30.38
2022-09-12T12:43:54.564Z,30.03
2022-09-12T12:46:22.685Z,29.80
2022-09-12T12:49:11.194Z,29.16
2022-09-12T12:51:43.815Z,28.97
2022-09-12T12:54:28.801Z,29.55
2022-09-12T12:57:13.398Z,26.68
2022-09-12T13:00:27.815Z,30.25
2022-09-12T13:03:06.633Z,28.30
2022-09-12T13:05:49.187Z,27.88
2022-09-12T13:08:18.731Z,26.88
2022-09-12T13:11:08.329Z,27.41
2022-09-12T13:13:41.645Z,27.04
2022-09-12T13:16:11.009Z,28.60
2022-09-12T13:18:49.638Z,29.48
2022-09-12T13:21:18.017Z,30.20
2022-09-12T13:23:45.311Z,28.46
2022-09-12T13:26:23.222Z,27.98
2022-09-12T13:28:51.534Z,28.35
2022-09-12T13:31:25.555Z,28.31
2022-09-12T13:33:58.980Z,28.78
2022-09-12T13:36:31.549Z,27.80
2022-09-12T13:39:27.353Z,26.51
2022-09-12T13:42:03.290Z,26.17
2022-09-12T13:44:32.923Z,26.55
2022-09-12T13:47:01.824Z,26.34
2022-09-12T13:49:37.890Z,26.25
2022-09-12T13:52:04.362Z,26.89
2022-09-12T13:54:32.978Z,27.29
2022-09-12T13:56:59.898Z,27.96
2022-09-12T13:59:26.482Z,27.73
2022-09-12T14:01:53.091Z,27.16
2022-09-12T14:04:44.173Z,26.03
2022-09-12T14:07:20.400Z,26.34
2022-09-12T14:09:55.022Z,26.62
2022-09-12T14:12:25.970Z,26.86
2022-09-12T14:14:53.512Z,27.12
2022-09-12T14:17:39.681Z,28.83
2022-09-12T14:20:18.720Z,28.02
2022-09-12T14:22:49.346Z,28.19
2022-09-12T14:25:20.678Z,27.30
2022-09-12T14:27:52.581Z,26.41
2022-09-12T14:30:34.342Z,25.88
2022-09-12T14:33:03.695Z,25.79
2022-09-12T14:35:30.704Z,26.42
2022-09-12T14:37:57.287Z,26.59
2022-09-12T14:40:24.174Z,25.99
2022-09-12T14:42:53.102Z,25.89
2022-09-12T14:45:30.974Z,26.15
2022-09-12T14:47:58.925Z,26.21
2022-09-12T14:50:29.221Z,27.08
2022-09-12T14:53:23.911Z,26.78
2022-09-12T14:55:59.546Z,25.98
2022-09-12T14:58:28.289Z,25.18
2022-09-12T15:00:59.001Z,24.97
2022-09-12T15:03:32.228Z,25.33
2022-09-12T15:06:00.166Z,25.19
2022-09-12T15:08:26.914Z,24.96
2022-09-12T15:10:53.767Z,25.54
2022-09-12T15:13:23.434Z,25.44
2022-09-12T15:15:53.572Z,26.09
2022-09-12T15:18:21.963Z,26.39
2022-09-12T15:20:52.919Z,25.23
2022-09-12T15:23:43.163Z,26.53
2022-09-12T15:26:13.365Z,26.33
2022-09-12T15:28:40.014Z,26.55
2022-09-12T15:31:12.752Z,25.99
2022-09-12T15:33:39.553Z,26.06
2022-09-12T15:36:14.438Z,26.51
2022-09-12T15:38:40.985Z,26.39
2022-09-12T15:41:19.448Z,26.46
2022-09-12T15:43:47.177Z,26.07
2022-09-12T15:46:15.294Z,26.16
2022-09-12T15:48:41.915Z,26.00
2022-09-12T15:51:20.198Z,25.86
2022-09-12T15:53:48.514Z,26.30
2022-09-12T15:56:17.436Z,26.82
2022-09-12T15:58:57.595Z,27.48
2022-09-12T16:01:24.684Z,27.62
2022-09-12T16:03:51.401Z,28.18
2022-09-12T16:06:17.957Z,28.49
2022-09-12T16:08:44.626Z,28.62
2022-09-12T16:11:18.379Z,29.00
2022-09-12T16:13:45.031Z,29.70
2022-09-12T16:16:11.650Z,29.39
2022-09-12T16:18:41.983Z,30.93
2022-09-12T16:21:12.757Z,31.21
2022-09-12T16:23:45.802Z,31.94
2022-09-12T16:26:12.347Z,31.00
2022-09-12T16:28:39.261Z,31.83
2022-09-12T16:31:08.904Z,31.38
2022-09-12T16:33:38.332Z,32.37
2022-09-12T16:36:10.506Z,31.34
2022-09-12T16:38:48.502Z,31.89
2022-09-12T16:41:17.100Z,32.11
2022-09-12T16:43:44.439Z,32.20
2022-09-12T16:46:13.749Z,32.00
2022-09-12T16:48:50.879Z,32.69
2022-09-12T16:51:21.328Z,33.03
2022-09-12T16:53:48.791Z,33.63
2022-09-12T16:56:15.500Z,33.66
2022-09-12T16:58:42.450Z,33.78
2022-09-12T17:01:21.370Z,34.11
2022-09-12T17:03:48.153Z,34.36
2022-09-12T17:06:19.012Z,36.10
2022-09-12T17:08:48.425Z,35.81
2022-09-12T17:11:16.620Z,36.03
2022-09-12T17:14:04.449Z,35.91
2022-09-12T17:16:34.154Z,36.12
2022-09-12T17:19:00.987Z,36.04
2022-09-12T17:21:27.670Z,36.22
2022-09-12T17:23:54.411Z,36.89
2022-09-12T17:26:21.005Z,36.99
2022-09-12T17:28:47.594Z,37.51
2022-09-12T17:31:15.041Z,37.99
2022-09-12T17:33:42.103Z,38.10
2022-09-12T17:36:15.337Z,38.10
2022-09-12T17:38:43.545Z,38.73
2022-09-12T17:41:19.186Z,39.53
2022-09-12T17:43:47.688Z,39.46
2022-09-12T17:46:14.802Z,39.33
2022-09-12T17:48:41.831Z,39.86
2022-09-12T17:51:13.581Z,40.02
2022-09-12T17:53:43.044Z,40.23
2022-09-12T17:56:11.036Z,40.57
2022-09-12T17:58:37.796Z,40.63
2022-09-12T18:01:25.432Z,40.93
2022-09-12T18:03:56.714Z,41.70
2022-09-12T18:06:24.486Z,41.27
2022-09-12T18:08:51.035Z,41.55
2022-09-12T18:11:17.703Z,41.53
2022-09-12T18:13:44.696Z,41.61
2022-09-12T18:16:13.864Z,42.22
2022-09-12T18:18:40.617Z,42.56
2022-09-12T18:21:10.371Z,42.95
2022-09-12T18:23:37.126Z,42.89
2022-09-12T18:26:09.717Z,43.50
2022-09-12T18:28:39.076Z,43.43
2022-09-12T18:31:11.247Z,44.05
2022-09-12T18:33:38.035Z,43.41
2022-09-12T18:36:06.026Z,43.45
2022-09-12T18:38:33.175Z,43.81
2022-09-12T18:41:08.270Z,44.78
2022-09-12T18:43:35.303Z,44.36
2022-09-12T18:46:10.435Z,44.59
2022-09-12T18:48:37.197Z,44.18
2022-09-12T18:51:08.102Z,44.15
2022-09-12T18:53:36.783Z,44.33
2022-09-12T18:56:04.772Z,44.47
2022-09-12T18:58:31.251Z,44.68
2022-09-12T19:00:58.647Z,44.64
2022-09-12T19:03:25.261Z,44.84
2022-09-12T19:05:52.139Z,45.11
2022-09-12T19:08:18.674Z,45.13
2022-09-12T19:10:45.260Z,44.86
2022-09-12T19:13:11.766Z,45.24
2022-09-12T19:15:41.363Z,45.38
2022-09-12T19:18:08.769Z,45.68
2022-09-12T19:20:36.602Z,45.42
2022-09-12T19:23:03.128Z,45.29
2022-09-12T19:25:29.677Z,46.14
2022-09-12T19:27:56.199Z,46.05
2022-09-12T19:30:22.716Z,46.20
2022-09-12T19:32:49.199Z,45.85
2022-09-12T19:35:15.857Z,46.67
2022-09-12T19:37:42.362Z,46.11
2022-09-12T19:40:09.258Z,46.55
2022-09-12T19:42:35.851Z,46.49
2022-09-12T19:45:02.405Z,46.30
2022-09-12T19:47:29.423Z,46.52
2022-09-12T19:49:55.917Z,46.68
2022-09-12T19:52:22.476Z,46.71
2022-09-12T19:54:49.004Z,46.82
2022-09-12T19:57:15.502Z,47.04
2022-09-12T19:59:42.067Z,47.11
2022-09-12T20:02:08.679Z,47.35
2022-09-12T20:04:35.306Z,47.28
2022-09-12T20:07:01.874Z,47.66
2022-09-12T20:09:28.337Z,47.60
2022-09-12T20:11:54.843Z,46.95
2022-09-12T20:14:22.225Z,46.59
2022-09-12T20:16:48.727Z,47.09
2022-09-12T20:19:15.195Z,46.79
2022-09-12T20:21:41.744Z,47.48
2022-09-12T20:24:13.688Z,47.28
2022-09-12T20:26:40.877Z,47.30
2022-09-12T20:29:08.283Z,47.27
2022-09-12T20:31:36.831Z,47.82
2022-09-12T20:34:04.595Z,47.97
2022-09-12T20:36:31.196Z,47.20
2022-09-12T20:39:02.598Z,46.85
2022-09-12T20:41:31.389Z,46.92
2022-09-12T20:43:58.067Z,47.49
2022-09-12T20:46:26.290Z,47.53
2022-09-12T20:48:52.936Z,47.13
2022-09-12T20:51:21.147Z,47.02
2022-09-12T20:53:48.600Z,47.83
2022-09-12T20:56:15.310Z,47.84
2022-09-12T20:58:44.285Z,47.65
2022-09-12T21:01:12.695Z,47.93
2022-09-12T21:03:40.168Z,47.70
2022-09-12T21:06:08.119Z,47.56
2022-09-12T21:08:35.726Z,47.47
2022-09-12T21:11:02.880Z,47.11
2022-09-12T21:13:29.519Z,46.91
2022-09-12T21:16:24.260Z,47.33
2022-09-12T21:18:56.721Z,47.41
2022-09-12T21:21:23.866Z,47.30
2022-09-12T21:23:55.280Z,47.02
2022-09-12T21:26:21.808Z,46.86
2022-09-12T21:28:48.418Z,46.89
2022-09-12T21:31:15.122Z,47.02
2022-09-12T21:33:41.729Z,47.28
2022-09-12T21:36:08.847Z,47.84
2022-09-12T21:38:35.399Z,47.67
2022-09-12T21:41:06.673Z,47.41
2022-09-12T21:43:33.403Z,47.12
2022-09-12T21:46:01.214Z,47.19
2022-09-12T21:48:28.221Z,47.10
2022-09-12T21:50:54.923Z,47.10
2022-09-12T21:53:21.577Z,47.10
2022-09-12T21:55:48.297Z,47.22
2022-09-12T21:58:14.782Z,46.99
2022-09-12T22:00:42.287Z,46.90
2022-09-12T22:03:10.419Z,46.74
2022-09-12T22:05:40.138Z,46.79
2022-09-12T22:08:08.017Z,46.87
2022-09-12T22:10:35.480Z,46.63
2022-09-12T22:13:02.424Z,47.04
2022-09-12T22:15:44.106Z,46.74
2022-09-12T22:18:10.827Z,46.83
2022-09-12T22:20:37.376Z,46.85
2022-09-12T22:23:24.786Z,46.64
2022-09-12T22:25:55.195Z,46.62
2022-09-12T22:28:21.710Z,46.49
2022-09-12T22:30:48.756Z,46.54
2022-09-12T22:33:15.338Z,46.38
2022-09-12T22:35:42.500Z,46.75
2022-09-12T22:38:09.233Z,46.64
2022-09-12T22:40:35.826Z,46.59
2022-09-12T22:43:02.414Z,46.50
2022-09-12T22:45:28.954Z,46.71
2022-09-12T22:47:59.182Z,46.61
2022-09-12T22:50:27.635Z,46.50
2022-09-12T22:52:54.185Z,46.81
2022-09-12T22:55:20.677Z,46.71
2022-09-12T22:57:47.309Z,46.90
2022-09-12T23:00:14.926Z,46.95
2022-09-12T23:02:41.502Z,46.71
2022-09-12T23:05:08.326Z,46.86
2022-09-12T23:07:34.840Z,46.73
2022-09-12T23:10:01.386Z,47.03
2022-09-12T23:12:27.901Z,47.03
2022-09-12T23:14:54.367Z,47.16
2022-09-12T23:17:20.894Z,47.26
2022-09-12T23:19:47.423Z,47.15
2022-09-12T23:22:14.018Z,47.29
2022-09-12T23:24:40.494Z,47.22
2022-09-12T23:27:07.162Z,47.34
2022-09-12T23:29:35.411Z,47.42
2022-09-12T23:32:03.509Z,47.23
2022-09-12T23:34:30.092Z,47.52
2022-09-12T23:36:56.893Z,47.32
2022-09-12T23:39:23.469Z,47.44
2022-09-12T23:41:50.527Z,47.59
2022-09-12T23:44:17.023Z,47.58
2022-09-12T23:46:43.603Z,47.49
2022-09-12T23:49:10.083Z,47.53
2022-09-12T23:51:36.757Z,47.47
2022-09-12T23:54:03.385Z,47.50
2022-09-12T23:56:29.969Z,47.57
2022-09-12T23:58:56.436Z,47.78
